Time;durP1;ratioP1;P1;durP2;ratioP2;P2;SDS_P1;SDS_P2;PMS_P1;PMS_P2;Temp;Humidity;BMP_temperature;BMP_pressure;BME280_temperature;BME280_humidity;BME280_pressure;Samples;Min_cycle;Max_cycle;Signal;HPM_P1;HPM_P2
2023/03/24 00:02:27;;;;;;;5.72;2.83;;;;;9.10;93291.00;;;;7401804;19;20158;-77
2023/03/24 00:05:02;;;;;;;2.97;2.50;;;;;9.20;93284.00;;;;7402298;19;20136;-80
2023/03/24 00:07:32;;;;;;;3.83;2.63;;;;;9.20;93277.00;;;;7405348;19;20592;-80
2023/03/24 00:10:17;;;;;;;2.90;2.33;;;;;9.10;93263.00;;;;7406018;19;20159;-79
2023/03/24 00:12:51;;;;;;;4.65;2.40;;;;;9.10;93265.00;;;;7400487;19;20148;-78
2023/03/24 00:15:22;;;;;;;3.53;2.57;;;;;9.10;93266.00;;;;7403363;19;20161;-77
2023/03/24 00:17:57;;;;;;;4.23;2.90;;;;;9.20;93267.00;;;;7400386;19;20722;-77
2023/03/24 00:20:32;;;;;;;3.72;2.92;;;;;9.10;93267.00;;;;7401177;19;20153;-78
2023/03/24 00:23:03;;;;;;;4.78;2.80;;;;;9.20;93266.00;;;;7402948;19;20131;-79
2023/03/24 00:25:48;;;;;;;3.05;2.65;;;;;9.30;93258.00;;;;7401710;19;20152;-76
2023/03/24 00:28:16;;;;;;;5.67;2.57;;;;;9.20;93263.00;;;;7403750;19;20200;-77
2023/03/24 00:30:51;;;;;;;4.33;3.20;;;;;9.10;93261.00;;;;7401732;19;20480;-76
2023/03/24 00:33:19;;;;;;;3.70;3.00;;;;;9.10;93258.00;;;;7401197;19;20196;-76
2023/03/24 00:35:53;;;;;;;3.53;2.57;;;;;9.10;93252.00;;;;7401436;19;20137;-77
2023/03/24 00:38:24;;;;;;;4.00;3.07;;;;;9.00;93256.00;;;;7393904;19;20149;-77
2023/03/24 00:40:53;;;;;;;3.23;2.87;;;;;9.10;93243.00;;;;7392807;19;20148;-77
2023/03/24 00:43:28;;;;;;;5.77;2.90;;;;;9.00;93250.00;;;;7401390;19;20204;-76
2023/03/24 00:46:06;;;;;;;6.70;3.10;;;;;9.10;93239.00;;;;7399764;19;20225;-77
2023/03/24 00:48:40;;;;;;;4.50;2.93;;;;;8.90;93240.00;;;;7400168;19;20145;-77
2023/03/24 00:51:15;;;;;;;5.80;3.30;;;;;9.00;93236.00;;;;7402387;19;20133;-78
2023/03/24 00:53:49;;;;;;;4.07;3.03;;;;;9.00;93226.00;;;;7400809;19;20153;-77
2023/03/24 00:56:25;;;;;;;3.87;3.10;;;;;8.90;93227.00;;;;7401972;19;20136;-78
2023/03/24 00:59:01;;;;;;;5.20;3.23;;;;;8.70;93222.00;;;;7400373;19;20144;-77
2023/03/24 01:01:33;;;;;;;3.17;2.87;;;;;8.60;93211.00;;;;7400672;19;20133;-78
2023/03/24 01:04:09;;;;;;;3.47;3.07;;;;;8.60;93213.00;;;;7402305;19;20770;-77
2023/03/24 01:06:37;;;;;;;3.73;3.10;;;;;8.60;93204.00;;;;7401655;19;20141;-79
2023/03/24 01:09:12;;;;;;;4.83;3.37;;;;;8.70;93214.00;;;;7400504;19;20215;-79
2023/03/24 01:11:47;;;;;;;6.10;3.63;;;;;8.80;93200.00;;;;7400521;19;20781;-78
2023/03/24 01:14:23;;;;;;;4.30;3.33;;;;;9.00;93205.00;;;;7396514;19;20160;-77
2023/03/24 01:17:05;;;;;;;4.30;3.43;;;;;9.00;93193.00;;;;7399214;19;20160;-76
2023/03/24 01:19:46;;;;;;;4.77;3.07;;;;;9.10;93184.00;;;;7401562;19;20121;-77
2023/03/24 01:22:25;;;;;;;3.80;3.13;;;;;9.20;93184.00;;;;7399433;19;20193;-77
2023/03/24 01:24:59;;;;;;;3.20;2.70;;;;;9.20;93181.00;;;;7399885;19;20595;-78
2023/03/24 01:27:27;;;;;;;3.23;2.80;;;;;9.20;93177.00;;;;7399713;19;20137;-78
2023/03/24 01:30:02;;;;;;;4.23;3.40;;;;;9.00;93171.00;;;;7400572;19;20145;-78
2023/03/24 01:32:30;;;;;;;5.27;2.90;;;;;9.00;93170.00;;;;7401081;19;20137;-76
2023/03/24 01:35:06;;;;;;;5.83;3.10;;;;;9.20;93167.00;;;;7400579;19;20201;-78
2023/03/24 01:37:34;;;;;;;5.17;3.20;;;;;9.00;93173.00;;;;7400418;19;20132;-77
2023/03/24 01:40:15;;;;;;;2.80;2.50;;;;;9.10;93163.00;;;;7400398;19;20595;-78
2023/03/24 01:42:50;;;;;;;2.88;2.40;;;;;8.90;93166.00;;;;7401324;19;20148;-80
2023/03/24 01:45:37;;;;;;;3.50;2.70;;;;;9.10;93158.00;;;;7399755;19;20133;-78
2023/03/24 01:48:16;;;;;;;3.37;2.47;;;;;9.20;93163.00;;;;7400201;19;20153;-77
2023/03/24 01:51:08;;;;;;;4.07;2.78;;;;;9.30;93159.00;;;;7399794;19;20161;-78
2023/03/24 01:53:52;;;;;;;4.82;2.70;;;;;9.20;93160.00;;;;7401425;19;20160;-79
2023/03/24 01:56:31;;;;;;;3.43;2.27;;;;;9.40;93158.00;;;;7400557;19;20485;-79
2023/03/24 01:59:02;;;;;;;3.07;2.30;;;;;9.30;93153.00;;;;7400369;19;20236;-78
2023/03/24 02:04:21;;;;;;;2.73;2.13;;;;;9.10;93161.00;;;;7422842;19;20180;-81
2023/03/24 02:07:37;;;;;;;5.38;2.55;;;;;9.10;93146.00;;;;7410472;19;20195;-82
2023/03/24 02:10:10;;;;;;;2.67;2.17;;;;;9.00;93143.00;;;;7416249;19;20181;-83
2023/03/24 02:12:45;;;;;;;2.63;2.00;;;;;9.00;93155.00;;;;7410604;19;20129;-84
2023/03/24 02:15:18;;;;;;;3.08;2.38;;;;;8.90;93154.00;;;;7411088;19;20160;-82
2023/03/24 02:18:17;;;;;;;3.73;2.30;;;;;8.90;93157.00;;;;7410330;19;20132;-82
2023/03/24 02:21:03;;;;;;;4.55;2.50;;;;;8.70;93158.00;;;;7405041;19;20153;-83
2023/03/24 02:24:08;;;;;;;3.03;2.22;;;;;9.00;93151.00;;;;7406786;19;20140;-82
2023/03/24 02:27:08;;;;;;;3.17;2.40;;;;;9.10;93151.00;;;;7399130;19;20615;-82
2023/03/24 02:30:12;;;;;;;2.37;2.17;;;;;9.20;93160.00;;;;7403403;19;20196;-83
2023/03/24 02:33:07;;;;;;;3.60;2.33;;;;;9.30;93166.00;;;;7403657;19;20136;-83
2023/03/24 02:36:09;;;;;;;3.80;2.00;;;;;9.30;93167.00;;;;7400925;19;20603;-83
2023/03/24 02:39:19;;;;;;;2.10;1.80;;;;;9.50;93158.00;;;;7396334;19;20619;-84
2023/03/24 02:42:09;;;;;;;2.70;2.40;;;;;9.70;93139.00;;;;7401771;19;20591;-83
2023/03/24 02:44:56;;;;;;;2.33;2.13;;;;;9.70;93128.00;;;;7400277;19;20525;-85
2023/03/24 02:47:36;;;;;;;3.77;2.30;;;;;9.90;93124.00;;;;7399128;19;20166;-85
2023/03/24 02:50:27;;;;;;;3.40;2.22;;;;;10.00;93118.00;;;;7397339;19;20132;-85
2023/03/24 02:53:16;;;;;;;2.50;2.15;;;;;9.90;93120.00;;;;7397317;19;20489;-84
2023/03/24 02:56:01;;;;;;;2.47;2.15;;;;;10.10;93111.00;;;;7398050;19;20137;-83
2023/03/24 02:58:44;;;;;;;2.53;2.13;;;;;10.10;93117.00;;;;7400718;19;20144;-83
2023/03/24 03:01:31;;;;;;;2.30;1.90;;;;;10.10;93113.00;;;;7405997;19;20164;-84
2023/03/24 03:04:11;;;;;;;2.77;2.37;;;;;10.20;93109.00;;;;7405165;19;20149;-84
2023/03/24 03:07:08;;;;;;;3.67;2.25;;;;;10.00;93102.00;;;;7403155;19;20175;-84
2023/03/24 03:09:54;;;;;;;2.65;2.10;;;;;10.00;93092.00;;;;7405136;19;20200;-84
2023/03/24 03:12:32;;;;;;;2.30;2.10;;;;;10.00;93087.00;;;;7400199;19;20538;-85
2023/03/24 03:15:17;;;;;;;2.40;2.10;;;;;10.20;93078.00;;;;7402084;19;20151;-84
2023/03/24 03:17:57;;;;;;;3.25;2.40;;;;;10.20;93080.00;;;;7402674;19;20145;-84
2023/03/24 03:20:33;;;;;;;3.08;2.42;;;;;10.20;93084.00;;;;7403024;19;20524;-83
2023/03/24 03:23:11;;;;;;;3.58;2.00;;;;;10.20;93083.00;;;;7403789;19;20168;-83
2023/03/24 03:25:49;;;;;;;3.07;2.10;;;;;10.20;93090.00;;;;7405048;19;20139;-84
2023/03/24 03:28:29;;;;;;;3.60;2.03;;;;;10.30;93099.00;;;;7403122;19;20599;-82
2023/03/24 03:31:04;;;;;;;2.47;2.20;;;;;10.30;93105.00;;;;7405398;19;20143;-83
2023/03/24 03:33:49;;;;;;;3.50;2.25;;;;;10.40;93107.00;;;;7403023;19;20182;-83
2023/03/24 03:36:34;;;;;;;2.60;2.13;;;;;10.40;93094.00;;;;7402632;19;20144;-83
2023/03/24 03:39:18;;;;;;;2.97;2.28;;;;;10.60;93108.00;;;;7401003;19;20133;-83
2023/03/24 03:41:45;;;;;;;3.30;2.13;;;;;10.60;93100.00;;;;7403950;19;20140;-84
2023/03/24 03:44:19;;;;;;;3.38;1.92;;;;;10.50;93101.00;;;;7403095;19;20165;-83
2023/03/24 03:46:47;;;;;;;2.28;2.08;;;;;10.50;93109.00;;;;7401906;19;20161;-84
2023/03/24 03:49:21;;;;;;;2.20;2.00;;;;;10.50;93103.00;;;;7403484;19;20499;-84
2023/03/24 03:51:52;;;;;;;2.33;2.05;;;;;10.40;93101.00;;;;7403009;19;20229;-85
2023/03/24 03:54:30;;;;;;;3.35;1.92;;;;;10.30;93089.00;;;;7403154;19;20137;-85
2023/03/24 03:57:04;;;;;;;3.15;1.80;;;;;10.00;93091.00;;;;7402409;19;20144;-85
2023/03/24 03:59:40;;;;;;;3.08;2.42;;;;;9.80;93085.00;;;;7404040;19;20173;-85
2023/03/24 04:02:27;;;;;;;5.43;2.15;;;;;9.80;93087.00;;;;7402259;19;20248;-86
2023/03/24 04:05:24;;;;;;;3.33;2.20;;;;;9.70;93092.00;;;;7403567;19;20141;-87
2023/03/24 04:08:11;;;;;;;4.07;2.03;;;;;9.90;93085.00;;;;7401213;19;20220;-86
2023/03/24 04:11:00;;;;;;;3.40;2.10;;;;;10.00;93097.00;;;;7405140;19;20208;-86
2023/03/24 04:13:53;;;;;;;3.28;2.50;;;;;10.10;93090.00;;;;7404617;19;20137;-86
2023/03/24 04:16:52;;;;;;;3.17;1.90;;;;;10.10;93103.00;;;;7399507;19;20172;-87
2023/03/24 04:19:32;;;;;;;3.30;2.25;;;;;10.20;93091.00;;;;7401357;19;20151;-86
2023/03/24 04:22:24;;;;;;;2.10;1.83;;;;;10.20;93091.00;;;;7404772;19;20882;-86
2023/03/24 04:25:03;;;;;;;3.35;2.13;;;;;10.40;93096.00;;;;7404493;19;20477;-86
2023/03/24 04:28:20;;;;;;;2.35;2.00;;;;;10.20;93097.00;;;;7404344;19;20521;-86
2023/03/24 04:31:06;;;;;;;4.95;2.00;;;;;10.30;93089.00;;;;7402674;19;20136;-86
2023/03/24 04:34:02;;;;;;;2.47;2.00;;;;;10.30;93105.00;;;;7402875;19;20177;-86
2023/03/24 04:36:42;;;;;;;2.95;1.80;;;;;10.30;93111.00;;;;7403187;19;20484;-86
2023/03/24 04:39:27;;;;;;;3.00;2.10;;;;;10.40;93119.00;;;;7400188;19;20667;-84
2023/03/24 04:42:12;;;;;;;4.72;1.95;;;;;10.20;93137.00;;;;7401994;19;20502;-85
2023/03/24 04:44:50;;;;;;;3.65;1.95;;;;;9.90;93139.00;;;;7401316;19;20627;-86
2023/03/24 04:47:25;;;;;;;3.10;1.77;;;;;9.70;93138.00;;;;7404499;19;20603;-89
2023/03/24 04:50:05;;;;;;;3.35;2.40;;;;;9.50;93160.00;;;;7404775;19;20137;-86
2023/03/24 04:52:41;;;;;;;2.47;1.92;;;;;9.50;93167.00;;;;7403250;19;20211;-87
2023/03/24 04:55:47;;;;;;;2.80;1.83;;;;;9.50;93180.00;;;;7404258;19;20145;-87
2023/03/24 04:58:22;;;;;;;3.05;1.95;;;;;9.50;93199.00;;;;7402483;19;20616;-86
2023/03/24 05:00:51;;;;;;;3.57;2.70;;;;;9.60;93207.00;;;;7402644;19;20136;-87
2023/03/24 05:03:25;;;;;;;4.50;3.00;;;;;9.50;93204.00;;;;7402664;19;20192;-87
2023/03/24 05:05:59;;;;;;;5.00;3.15;;;;;9.60;93214.00;;;;7406504;19;20730;-90
2023/03/24 05:08:40;;;;;;;4.70;3.40;;;;;9.50;93209.00;;;;7405396;19;20157;-92
2023/03/24 05:11:07;;;;;;;7.50;3.65;;;;;9.50;93204.00;;;;7405241;19;20137;-93
2023/03/24 05:13:43;;;;;;;6.23;4.20;;;;;9.40;93207.00;;;;7397574;19;20185;-89
2023/03/24 05:16:12;;;;;;;5.10;4.07;;;;;9.30;93196.00;;;;7402778;19;20238;-88
2023/03/24 05:18:46;;;;;;;7.37;4.47;;;;;9.40;93198.00;;;;7401773;19;20136;-86
2023/03/24 05:21:14;;;;;;;6.20;4.40;;;;;9.40;93192.00;;;;7401431;19;20129;-88
2023/03/24 05:23:48;;;;;;;4.85;3.67;;;;;9.30;93200.00;;;;7401622;19;20136;-85
2023/03/24 05:26:16;;;;;;;6.07;4.27;;;;;9.30;93206.00;;;;7400465;19;20173;-85
2023/03/24 05:28:51;;;;;;;5.10;4.10;;;;;9.30;93217.00;;;;7399219;19;20156;-83
2023/03/24 05:31:26;;;;;;;5.47;4.30;;;;;9.30;93213.00;;;;7400863;19;20466;-83
2023/03/24 05:34:00;;;;;;;6.30;4.10;;;;;9.30;93211.00;;;;7399167;19;20201;-83
2023/03/24 05:36:34;;;;;;;6.50;4.57;;;;;9.30;93205.00;;;;7400136;19;20666;-83
2023/03/24 05:39:08;;;;;;;7.67;4.23;;;;;9.30;93204.00;;;;7386709;19;20129;-86
2023/03/24 05:41:42;;;;;;;6.28;4.22;;;;;9.30;93211.00;;;;7398757;19;20617;-86
2023/03/24 05:44:16;;;;;;;5.13;4.28;;;;;9.30;93207.00;;;;7398934;19;20212;-85
2023/03/24 05:46:44;;;;;;;5.67;4.13;;;;;9.30;93203.00;;;;7400065;19;20193;-83
2023/03/24 05:49:18;;;;;;;5.03;4.30;;;;;9.30;93200.00;;;;7400596;19;20604;-85
2023/03/24 05:51:47;;;;;;;5.57;4.30;;;;;9.30;93194.00;;;;7402246;19;20133;-85
2023/03/24 05:54:22;;;;;;;6.53;3.72;;;;;9.30;93205.00;;;;7402546;19;20131;-84
2023/03/24 05:56:51;;;;;;;4.18;3.78;;;;;9.40;93204.00;;;;7401785;19;20144;-84
2023/03/24 05:59:19;;;;;;;4.55;3.67;;;;;9.50;93203.00;;;;7401476;19;20232;-85
2023/03/24 06:01:57;;;;;;;4.70;4.03;;;;;9.40;93207.00;;;;7399889;19;20176;-84
2023/03/24 06:04:29;;;;;;;7.00;4.22;;;;;9.40;93203.00;;;;7400551;19;20148;-84
2023/03/24 06:07:18;;;;;;;5.30;4.30;;;;;9.50;93195.00;;;;7400329;19;20570;-83
2023/03/24 06:09:56;;;;;;;6.50;4.35;;;;;9.60;93193.00;;;;7401433;19;20148;-85
2023/03/24 06:12:32;;;;;;;4.88;4.35;;;;;9.70;93187.00;;;;7402538;19;20132;-84
2023/03/24 06:15:07;;;;;;;5.78;5.18;;;;;10.00;93185.00;;;;7401606;19;20144;-84
2023/03/24 06:17:43;;;;;;;6.90;5.22;;;;;10.00;93186.00;;;;7401576;19;20169;-86
2023/03/24 06:20:17;;;;;;;6.85;5.22;;;;;10.10;93190.00;;;;7401161;19;20132;-85
2023/03/24 06:22:57;;;;;;;9.07;5.65;;;;;10.10;93202.00;;;;7403057;19;20140;-87
2023/03/24 06:25:35;;;;;;;5.90;5.30;;;;;10.10;93190.00;;;;7404470;19;20132;-84
2023/03/24 06:28:13;;;;;;;9.35;6.00;;;;;10.10;93192.00;;;;7402162;19;20507;-87
2023/03/24 06:30:49;;;;;;;6.68;5.93;;;;;10.20;93196.00;;;;7405314;19;20141;-87
2023/03/24 06:33:24;;;;;;;8.20;6.30;;;;;10.10;93211.00;;;;7405546;19;20365;-88
2023/03/24 06:36:00;;;;;;;8.52;6.15;;;;;10.10;93214.00;;;;7405396;19;20136;-87
2023/03/24 06:38:34;;;;;;;8.30;5.43;;;;;9.90;93200.00;;;;7405878;19;20144;-86
2023/03/24 06:41:09;;;;;;;6.57;5.07;;;;;9.70;93213.00;;;;7409315;19;20165;-91
2023/03/24 06:43:37;;;;;;;9.02;6.22;;;;;9.80;93208.00;;;;7406337;19;20137;-90
2023/03/24 06:46:12;;;;;;;7.50;5.75;;;;;9.70;93208.00;;;;7406203;19;20160;-87
2023/03/24 06:48:41;;;;;;;8.57;4.82;;;;;9.80;93204.00;;;;7405479;19;20141;-88
2023/03/24 06:51:16;;;;;;;14.70;5.90;;;;;9.70;93210.00;;;;7406527;19;20143;-91
2023/03/24 06:53:44;;;;;;;8.80;5.82;;;;;9.70;93216.00;;;;7406861;19;20165;-91
2023/03/24 06:56:19;;;;;;;8.23;5.20;;;;;9.70;93216.00;;;;7406486;19;20462;-90
2023/03/24 06:58:48;;;;;;;7.82;5.15;;;;;9.70;93216.00;;;;7401681;19;20161;-88
2023/03/24 07:01:16;;;;;;;8.00;4.95;;;;;9.80;93231.00;;;;7399695;19;20239;-86
2023/03/24 07:03:52;;;;;;;10.95;5.88;;;;;9.70;93233.00;;;;7397623;19;20132;-82
2023/03/24 07:06:28;;;;;;;7.18;5.60;;;;;9.70;93236.00;;;;7397468;19;20125;-87
2023/03/24 07:09:24;;;;;;;6.30;4.78;;;;;9.70;93235.00;;;;7399964;19;20154;-88
2023/03/24 07:11:52;;;;;;;6.47;4.43;;;;;9.70;93249.00;;;;7398973;19;20144;-88
2023/03/24 07:14:26;;;;;;;6.55;4.40;;;;;9.60;93248.00;;;;7398712;19;20630;-84
2023/03/24 07:16:54;;;;;;;4.97;4.43;;;;;9.60;93248.00;;;;7401549;19;20169;-86
2023/03/24 07:19:29;;;;;;;6.07;4.63;;;;;9.70;93241.00;;;;7404700;19;20147;-86
2023/03/24 07:22:03;;;;;;;4.10;3.70;;;;;9.70;93248.00;;;;7401713;19;20157;-88
2023/03/24 07:24:31;;;;;;;5.10;3.33;;;;;9.70;93251.00;;;;7396985;19;20185;-87
2023/03/24 07:27:05;;;;;;;4.50;3.58;;;;;9.70;93248.00;;;;7398562;19;20165;-80
2023/03/24 07:29:35;;;;;;;5.55;3.60;;;;;9.70;93251.00;;;;7398899;19;20485;-89
2023/03/24 07:32:09;;;;;;;6.40;3.30;;;;;9.80;93256.00;;;;7399336;19;20133;-83
2023/03/24 07:34:45;;;;;;;3.03;2.73;;;;;9.80;93253.00;;;;7399426;19;20154;-82
2023/03/24 07:37:34;;;;;;;4.35;2.72;;;;;9.80;93260.00;;;;7398665;19;20150;-86
2023/03/24 07:40:16;;;;;;;5.18;2.75;;;;;9.80;93261.00;;;;7398692;19;20157;-83
2023/03/24 07:42:44;;;;;;;4.00;3.00;;;;;9.70;93272.00;;;;7399324;19;20624;-84
2023/03/24 07:45:18;;;;;;;4.88;3.00;;;;;9.70;93272.00;;;;7407262;19;20136;-84
2023/03/24 07:47:52;;;;;;;4.20;3.08;;;;;9.70;93277.00;;;;7405591;19;20479;-84
2023/03/24 07:50:27;;;;;;;3.25;2.72;;;;;9.70;93279.00;;;;7407039;19;20144;-84
2023/03/24 07:52:55;;;;;;;3.10;2.25;;;;;9.70;93288.00;;;;7404612;19;20156;-83
2023/03/24 07:55:27;;;;;;;3.20;2.50;;;;;9.70;93283.00;;;;7404845;19;20534;-84
2023/03/24 07:58:01;;;;;;;2.85;2.58;;;;;9.90;93272.00;;;;7403677;19;20505;-83
2023/03/24 08:00:37;;;;;;;2.85;2.17;;;;;10.00;93270.00;;;;7402186;19;20588;-83
2023/03/24 08:03:13;;;;;;;3.13;2.40;;;;;10.10;93250.00;;;;7402118;19;20137;-84
2023/03/24 08:05:47;;;;;;;2.45;1.80;;;;;10.20;93246.00;;;;7404264;19;20169;-83
2023/03/24 08:08:29;;;;;;;2.63;1.90;;;;;10.20;93239.00;;;;7402304;19;20516;-80
2023/03/24 08:10:56;;;;;;;2.35;1.83;;;;;10.30;93248.00;;;;7401578;19;20153;-81
2023/03/24 08:13:31;;;;;;;2.20;1.73;;;;;10.20;93222.00;;;;7401444;19;20616;-81
2023/03/24 08:16:05;;;;;;;2.00;1.80;;;;;10.30;93197.00;;;;7401960;19;20150;-82
2023/03/24 08:18:33;;;;;;;2.10;1.90;;;;;10.30;93204.00;;;;7402386;19;20217;-84
2023/03/24 08:21:07;;;;;;;1.67;1.50;;;;;10.20;93194.00;;;;7402502;19;20156;-84
2023/03/24 08:23:42;;;;;;;1.52;1.42;;;;;10.20;93199.00;;;;7403292;19;20148;-83
2023/03/24 08:26:16;;;;;;;1.60;1.50;;;;;10.30;93201.00;;;;7397573;19;20610;-90
2023/03/24 08:28:50;;;;;;;2.28;1.60;;;;;10.40;93178.00;;;;7401232;19;20592;-84
2023/03/24 08:31:18;;;;;;;2.75;1.40;;;;;10.40;93184.00;;;;7401984;19;20171;-81
2023/03/24 08:33:53;;;;;;;1.48;1.38;;;;;10.40;93205.00;;;;7399853;19;20156;-86
2023/03/24 08:36:25;;;;;;;2.05;1.42;;;;;10.40;93214.00;;;;7403708;19;20140;-81
2023/03/24 08:39:00;;;;;;;1.48;1.38;;;;;10.70;93215.00;;;;7401958;19;20137;-81
2023/03/24 08:41:35;;;;;;;1.77;1.40;;;;;10.60;93207.00;;;;7401912;19;20144;-83
2023/03/24 08:44:11;;;;;;;1.55;1.30;;;;;10.40;93226.00;;;;7400876;19;20124;-81
2023/03/24 08:46:39;;;;;;;1.40;1.30;;;;;10.60;93229.00;;;;7397784;19;20602;-84
2023/03/24 08:49:14;;;;;;;3.95;1.80;;;;;10.20;93237.00;;;;7403387;19;20133;-86
2023/03/24 08:51:43;;;;;;;1.90;1.40;;;;;10.10;93223.00;;;;7402172;19;20149;-82
2023/03/24 08:54:11;;;;;;;1.60;1.50;;;;;10.10;93223.00;;;;7403064;19;20460;-85
2023/03/24 08:56:45;;;;;;;1.63;1.52;;;;;10.20;93226.00;;;;7400208;19;20218;-84
2023/03/24 08:59:13;;;;;;;1.95;1.80;;;;;10.10;93229.00;;;;7401910;19;20150;-84
2023/03/24 09:01:47;;;;;;;3.90;1.63;;;;;10.10;93219.00;;;;7401958;19;20215;-83
2023/03/24 09:04:15;;;;;;;1.83;1.73;;;;;10.40;93235.00;;;;7401042;19;20141;-86
2023/03/24 09:07:03;;;;;;;1.65;1.55;;;;;10.50;93222.00;;;;7401976;19;20187;-89
2023/03/24 09:09:38;;;;;;;1.73;1.63;;;;;10.50;93215.00;;;;7406625;19;20137;-87
2023/03/24 09:12:13;;;;;;;2.55;1.83;;;;;10.50;93228.00;;;;7404446;19;20169;-90
2023/03/24 09:14:49;;;;;;;1.52;1.42;;;;;10.50;93231.00;;;;7402319;19;20157;-87
2023/03/24 09:17:17;;;;;;;1.90;1.80;;;;;10.50;93239.00;;;;7405296;19;20121;-86
2023/03/24 09:19:52;;;;;;;2.47;1.50;;;;;10.50;93232.00;;;;7402492;19;20207;-87
2023/03/24 09:22:20;;;;;;;2.70;1.75;;;;;10.60;93222.00;;;;7402430;19;20153;-87
2023/03/24 09:24:55;;;;;;;2.08;1.58;;;;;11.00;93204.00;;;;7403291;19;20636;-87
2023/03/24 09:27:23;;;;;;;2.13;1.77;;;;;11.30;93216.00;;;;7405338;19;20146;-87
2023/03/24 09:29:59;;;;;;;1.90;1.48;;;;;11.60;93219.00;;;;7404625;19;20120;-89
2023/03/24 09:32:36;;;;;;;2.17;1.45;;;;;11.80;93203.00;;;;7402575;19;20604;-85
2023/03/24 09:35:10;;;;;;;1.75;1.60;;;;;12.30;93185.00;;;;7404853;19;20136;-90
2023/03/24 09:37:39;;;;;;;1.52;1.42;;;;;12.50;93198.00;;;;7404871;19;20136;-86
2023/03/24 09:40:27;;;;;;;1.73;1.42;;;;;13.20;93211.00;;;;7403116;19;20603;-91
2023/03/24 09:43:03;;;;;;;2.05;1.35;;;;;12.90;93218.00;;;;7405389;19;20482;-86
2023/03/24 09:45:55;;;;;;;2.47;1.50;;;;;12.50;93190.00;;;;7400861;19;20152;-84
2023/03/24 09:49:06;;;;;;;2.92;1.30;;;;;13.20;93205.00;;;;7399144;19;20124;-82
2023/03/24 09:51:44;;;;;;;1.77;1.30;;;;;12.80;93199.00;;;;7398659;19;20617;-80
2023/03/24 09:54:26;;;;;;;1.45;1.35;;;;;12.30;93193.00;;;;7397701;19;20492;-81
2023/03/24 09:57:04;;;;;;;1.45;1.35;;;;;12.50;93190.00;;;;7400941;19;20121;-80
2023/03/24 09:59:38;;;;;;;2.55;1.30;;;;;12.80;93207.00;;;;7400493;19;20188;-82
2023/03/24 10:02:19;;;;;;;2.13;1.60;;;;;12.80;93196.00;;;;7400311;19;20506;-85
2023/03/24 10:04:49;;;;;;;1.60;1.30;;;;;13.10;93201.00;;;;7400959;19;20141;-83
2023/03/24 10:07:42;;;;;;;1.58;1.30;;;;;13.60;93173.00;;;;7397432;19;20145;-82
2023/03/24 10:10:53;;;;;;;1.20;1.10;;;;;13.90;93186.00;;;;7398916;19;20219;-82
2023/03/24 10:13:42;;;;;;;1.60;1.13;;;;;13.70;93191.00;;;;7397685;19;20154;-80
2023/03/24 10:16:49;;;;;;;1.65;1.10;;;;;13.60;93206.00;;;;7397512;19;20593;-81
2023/03/24 10:20:19;;;;;;;1.40;1.30;;;;;13.30;93228.00;;;;7394637;19;20276;-81
2023/03/24 10:23:11;;;;;;;1.42;1.33;;;;;12.80;93236.00;;;;7399511;19;20128;-81
2023/03/24 10:25:51;;;;;;;1.33;1.10;;;;;12.90;93207.00;;;;7401195;19;20150;-80
2023/03/24 10:29:12;;;;;;;1.20;1.02;;;;;13.30;93212.00;;;;7404033;19;20145;-81
2023/03/24 10:31:51;;;;;;;1.30;1.20;;;;;12.90;93217.00;;;;7399442;19;20141;-82
2023/03/24 10:34:20;;;;;;;1.40;1.02;;;;;12.70;93199.00;;;;7399581;19;20592;-80
2023/03/24 10:36:57;;;;;;;1.60;1.23;;;;;12.90;93228.00;;;;7404229;19;20196;-80
2023/03/24 10:39:32;;;;;;;0.93;0.93;;;;;12.70;93230.00;;;;7400709;19;20156;-81
2023/03/24 10:42:20;;;;;;;1.13;1.10;;;;;12.80;93235.00;;;;7400993;19;20137;-79
2023/03/24 10:44:50;;;;;;;1.23;1.13;;;;;12.80;93252.00;;;;7396337;19;20132;-80
2023/03/24 10:47:28;;;;;;;1.83;1.33;;;;;13.10;93241.00;;;;7397027;19;20511;-82
2023/03/24 10:50:04;;;;;;;1.67;1.10;;;;;13.40;93232.00;;;;7398588;19;20624;-79
2023/03/24 10:52:49;;;;;;;1.30;1.20;;;;;13.70;93230.00;;;;7401451;19;20616;-79
2023/03/24 10:55:37;;;;;;;1.75;1.10;;;;;14.10;93223.00;;;;7399372;19;20140;-77
2023/03/24 10:58:19;;;;;;;1.35;0.95;;;;;14.10;93238.00;;;;7403858;19;20136;-82
2023/03/24 11:00:57;;;;;;;1.10;1.00;;;;;13.90;93232.00;;;;7399978;19;20216;-80
2023/03/24 11:03:34;;;;;;;1.00;0.95;;;;;14.60;93226.00;;;;7400703;19;20660;-78
2023/03/24 11:06:17;;;;;;;2.22;0.80;;;;;14.40;93233.00;;;;7400261;19;20204;-78
2023/03/24 11:09:27;;;;;;;1.08;0.68;;;;;14.40;93237.00;;;;7399331;19;20169;-78
2023/03/24 11:12:03;;;;;;;2.08;1.10;;;;;13.90;93256.00;;;;7401863;19;20143;-81
2023/03/24 11:14:31;;;;;;;0.80;0.80;;;;;13.10;93262.00;;;;7400766;19;20145;-79
2023/03/24 11:17:16;;;;;;;1.05;0.90;;;;;12.70;93255.00;;;;7403906;19;20157;-81
2023/03/24 11:19:53;;;;;;;0.88;0.63;;;;;12.40;93274.00;;;;7410078;19;20605;-78
2023/03/24 11:22:21;;;;;;;1.00;0.90;;;;;12.00;93264.00;;;;7407310;19;20153;-80
2023/03/24 11:24:56;;;;;;;3.38;1.00;;;;;11.80;93271.00;;;;7413043;19;20448;-78
2023/03/24 11:27:30;;;;;;;0.95;0.85;;;;;11.60;93283.00;;;;7412319;19;20128;-80
2023/03/24 11:30:05;;;;;;;0.82;0.75;;;;;11.80;93276.00;;;;7412645;19;20149;-81
2023/03/24 11:32:34;;;;;;;1.15;1.00;;;;;11.90;93282.00;;;;7410305;19;20255;-86
2023/03/24 11:35:16;;;;;;;1.48;1.00;;;;;12.10;93271.00;;;;7413870;19;20141;-82
2023/03/24 11:38:07;;;;;;;1.42;1.10;;;;;12.30;93275.00;;;;7414046;19;20136;-83
2023/03/24 11:41:00;;;;;;;1.70;1.48;;;;;11.80;93297.00;;;;7410239;19;20137;-80
2023/03/24 11:43:30;;;;;;;0.70;0.70;;;;;12.00;93265.00;;;;7411168;19;20149;-80
2023/03/24 11:46:19;;;;;;;0.82;0.82;;;;;12.80;93250.00;;;;7411223;19;20139;-83
2023/03/24 11:49:23;;;;;;;0.85;0.85;;;;;13.50;93257.00;;;;7412268;19;20136;-77
2023/03/24 11:51:58;;;;;;;1.27;0.57;;;;;13.20;93242.00;;;;7409189;19;20132;-79
2023/03/24 11:54:35;;;;;;;2.40;0.82;;;;;13.60;93252.00;;;;7407629;19;20196;-79
2023/03/24 11:57:11;;;;;;;1.63;0.70;;;;;13.60;93239.00;;;;7409551;19;20609;-78
2023/03/24 12:00:00;;;;;;;0.90;0.90;;;;;13.50;93247.00;;;;7410447;19;20140;-78
2023/03/24 12:02:46;;;;;;;0.70;0.70;;;;;12.90;93260.00;;;;7408265;19;20172;-80
2023/03/24 12:05:20;;;;;;;0.80;0.80;;;;;13.00;93263.00;;;;7408224;19;20164;-78
2023/03/24 12:08:13;;;;;;;1.45;0.73;;;;;12.40;93272.00;;;;7405817;19;20140;-80
2023/03/24 12:11:03;;;;;;;0.60;0.60;;;;;12.30;93263.00;;;;7409338;19;20135;-78
2023/03/24 12:13:41;;;;;;;1.42;0.85;;;;;11.90;93271.00;;;;7410814;19;20150;-79
2023/03/24 12:16:20;;;;;;;1.60;0.50;;;;;11.80;93282.00;;;;7409592;19;20644;-78
2023/03/24 12:19:17;;;;;;;0.60;0.60;;;;;12.00;93277.00;;;;7407683;19;20162;-79
2023/03/24 12:22:12;;;;;;;0.55;0.55;;;;;13.10;93280.00;;;;7407165;19;20501;-79
2023/03/24 12:25:03;;;;;;;0.43;0.43;;;;;12.50;93304.00;;;;7408948;19;20132;-79
2023/03/24 12:27:54;;;;;;;0.70;0.70;;;;;12.40;93291.00;;;;7407287;19;20129;-79
2023/03/24 12:31:02;;;;;;;0.70;0.57;;;;;12.60;93286.00;;;;7405030;19;20208;-78
2023/03/24 12:33:51;;;;;;;0.85;0.60;;;;;12.90;93274.00;;;;7407571;19;20596;-78
2023/03/24 12:36:56;;;;;;;0.55;0.55;;;;;12.60;93294.00;;;;7404624;19;20592;-80
2023/03/24 12:40:10;;;;;;;0.40;0.40;;;;;12.30;93304.00;;;;7402285;19;20129;-77
2023/03/24 12:42:45;;;;;;;1.23;0.50;;;;;12.90;93276.00;;;;7400447;19;20148;-82
2023/03/24 12:45:39;;;;;;;0.88;0.60;;;;;13.30;93285.00;;;;7401292;19;20147;-82
2023/03/24 12:48:32;;;;;;;0.38;0.38;;;;;13.30;93275.00;;;;7397146;19;20152;-81
2023/03/24 12:51:30;;;;;;;0.60;0.60;;;;;12.30;93279.00;;;;7404583;19;20133;-80
2023/03/24 12:54:33;;;;;;;2.40;1.00;;;;;11.90;93285.00;;;;7403722;19;20133;-80
2023/03/24 12:57:13;;;;;;;0.40;0.38;;;;;11.60;93283.00;;;;7399897;19;20468;-79
2023/03/24 12:59:56;;;;;;;0.40;0.40;;;;;11.70;93294.00;;;;7404469;19;20462;-79
2023/03/24 13:02:40;;;;;;;0.30;0.30;;;;;11.50;93283.00;;;;7400182;19;20628;-77
2023/03/24 13:05:21;;;;;;;0.47;0.47;;;;;11.20;93279.00;;;;7402608;19;20133;-81
2023/03/24 13:08:01;;;;;;;0.63;0.63;;;;;11.70;93272.00;;;;7399911;19;20145;-81
2023/03/24 13:10:46;;;;;;;0.52;0.52;;;;;11.80;93272.00;;;;7399453;19;20153;-80
2023/03/24 13:13:34;;;;;;;0.38;0.38;;;;;11.70;93263.00;;;;7397999;19;20165;-81
2023/03/24 13:16:18;;;;;;;0.20;0.20;;;;;11.70;93272.00;;;;7400656;19;20537;-78
2023/03/24 13:18:55;;;;;;;0.40;0.40;;;;;11.70;93259.00;;;;7400105;19;20145;-77
2023/03/24 13:21:34;;;;;;;0.57;0.57;;;;;11.60;93274.00;;;;7404011;19;20133;-77
2023/03/24 13:24:06;;;;;;;0.60;0.30;;;;;11.70;93274.00;;;;7402255;19;20216;-77
2023/03/24 13:27:19;;;;;;;0.95;0.43;;;;;11.70;93275.00;;;;7404973;19;20120;-77